createdAt,value
2023-01-30T00:02:38.453Z,99947.88
2023-01-30T00:05:47.779Z,99943.81
2023-01-30T00:08:56.997Z,99944.28
2023-01-30T00:12:08.495Z,99931.06
2023-01-30T00:15:17.930Z,99920.56
2023-01-30T00:18:27.203Z,99925.91
2023-01-30T00:21:36.437Z,99911.38
2023-01-30T00:24:45.728Z,99898.97
2023-01-30T00:27:56.681Z,99886.25
2023-01-30T00:31:06.078Z,99889.53
2023-01-30T00:34:15.622Z,99873.69
2023-01-30T00:37:24.938Z,99865.25
2023-01-30T00:40:34.229Z,99863.41
2023-01-30T00:44:02.530Z,99853.16
2023-01-30T00:47:12.131Z,99846.72
2023-01-30T00:50:21.391Z,99845.78
2023-01-30T00:53:30.671Z,99828.09
2023-01-30T00:56:39.938Z,99833.84
2023-01-30T00:59:50.871Z,99811.75
2023-01-30T01:03:00.139Z,99799.59
2023-01-30T01:06:09.526Z,99799.19
2023-01-30T01:09:19.092Z,99782.63
2023-01-30T01:12:28.321Z,99776.19
2023-01-30T01:15:39.088Z,99765.13
2023-01-30T01:18:48.477Z,99753.78
2023-01-30T01:21:57.861Z,99746.16
2023-01-30T01:25:08.519Z,99728.56
2023-01-30T01:28:21.751Z,99736.09
2023-01-30T01:31:32.805Z,99730.91
2023-01-30T01:34:42.365Z,99716.28
2023-01-30T01:37:54.888Z,99704.44
2023-01-30T01:41:06.300Z,99693.38
2023-01-30T01:44:18.313Z,99699.25
2023-01-30T01:47:28.969Z,99695.13
2023-01-30T01:50:42.944Z,99682.28
2023-01-30T01:53:55.547Z,99681.94
2023-01-30T01:57:08.648Z,99660.16
2023-01-30T02:00:20.115Z,99656.78
2023-01-30T02:03:33.988Z,99665.84
2023-01-30T02:06:43.749Z,99653.72
2023-01-30T02:09:53.607Z,99655.84
2023-01-30T02:13:02.915Z,99652.88
2023-01-30T02:16:12.475Z,99644.63
2023-01-30T02:19:28.428Z,99643.03
2023-01-30T02:22:57.522Z,99630.78
2023-01-30T02:26:51.064Z,99621.81
2023-01-30T02:30:47.463Z,99620.97
2023-01-30T02:34:12.937Z,99619.59
2023-01-30T02:37:30.790Z,99607.63
2023-01-30T02:40:46.223Z,99590.53
2023-01-30T02:44:01.699Z,99593.97
2023-01-30T02:47:13.638Z,99591.56
2023-01-30T02:50:27.147Z,99577.69
2023-01-30T02:53:37.575Z,99577.84
2023-01-30T02:56:50.087Z,99570.44
2023-01-30T03:00:01.221Z,99574.22
2023-01-30T03:03:32.569Z,99565.44
2023-01-30T03:06:56.904Z,99552.44
2023-01-30T03:10:11.056Z,99557.53
2023-01-30T03:13:34.905Z,99551.19
2023-01-30T03:16:45.535Z,99538.19
2023-01-30T03:19:55.847Z,99527.81
2023-01-30T03:23:06.629Z,99511.66
2023-01-30T03:26:20.347Z,99500.69
2023-01-30T03:29:29.835Z,99477.81
2023-01-30T03:32:39.236Z,99487.97
2023-01-30T03:35:49.398Z,99472.84
2023-01-30T03:39:00.756Z,99479.09
2023-01-30T03:42:10.717Z,99444.13
2023-01-30T03:45:20.322Z,99460.56
2023-01-30T03:48:30.490Z,99466.75
2023-01-30T03:51:43.076Z,99443.88
2023-01-30T03:54:54.118Z,99428.41
2023-01-30T03:58:03.631Z,99433.56
2023-01-30T04:01:15.356Z,99420.94
2023-01-30T04:04:24.892Z,99424.00
2023-01-30T04:07:34.484Z,99406.06
2023-01-30T04:10:45.368Z,99403.16
2023-01-30T04:13:55.962Z,99393.88
2023-01-30T04:17:05.829Z,99402.44
2023-01-30T04:20:28.268Z,99389.72
2023-01-30T04:23:39.324Z,99382.63
2023-01-30T04:26:51.771Z,99370.84
2023-01-30T04:30:01.715Z,99351.13
2023-01-30T04:33:11.260Z,99349.28
2023-01-30T04:36:20.809Z,99342.44
2023-01-30T04:39:30.151Z,99328.56
2023-01-30T04:42:41.230Z,99327.13
2023-01-30T04:46:16.847Z,99317.34
2023-01-30T04:49:26.492Z,99312.47
2023-01-30T04:52:37.147Z,99301.94
2023-01-30T04:55:47.932Z,99293.97
2023-01-30T04:58:58.707Z,99296.47
2023-01-30T05:02:11.751Z,99305.50
2023-01-30T05:05:21.175Z,99296.25
2023-01-30T05:08:30.561Z,99283.31
2023-01-30T05:11:40.683Z,99280.44
2023-01-30T05:14:51.651Z,99278.66
2023-01-30T05:18:01.292Z,99264.22
2023-01-30T05:21:12.213Z,99248.75
2023-01-30T05:24:21.671Z,99241.56
2023-01-30T05:27:30.941Z,99234.63
2023-01-30T05:30:41.929Z,99223.53
2023-01-30T05:33:52.559Z,99229.69
2023-01-30T05:37:01.874Z,99226.13
2023-01-30T05:40:12.487Z,99227.84
2023-01-30T05:43:21.829Z,99222.72
2023-01-30T05:46:32.623Z,99218.59
2023-01-30T05:49:42.016Z,99222.06
2023-01-30T05:52:51.590Z,99204.28
2023-01-30T05:56:02.270Z,99194.81
2023-01-30T05:59:13.587Z,99206.72
2023-01-30T06:02:24.521Z,99191.69
2023-01-30T06:05:33.844Z,99187.75
2023-01-30T06:08:43.265Z,99176.50
2023-01-30T06:11:55.423Z,99166.41
2023-01-30T06:15:04.898Z,99159.13
2023-01-30T06:18:15.674Z,99146.97
2023-01-30T06:21:25.110Z,99146.00
2023-01-30T06:24:34.418Z,99158.50
2023-01-30T06:27:44.730Z,99155.22
2023-01-30T06:30:54.733Z,99147.97
2023-01-30T06:34:05.608Z,99158.88
2023-01-30T06:37:15.113Z,99146.38
2023-01-30T06:40:24.552Z,99138.22
2023-01-30T06:43:33.972Z,99135.28
2023-01-30T06:46:43.449Z,99124.78
2023-01-30T06:49:54.328Z,99116.22
2023-01-30T06:53:05.415Z,99122.94
2023-01-30T06:56:15.820Z,99130.31
2023-01-30T06:59:25.294Z,99117.03
2023-01-30T07:02:35.843Z,99113.09
2023-01-30T07:05:47.552Z,99108.88
2023-01-30T07:08:58.743Z,99100.00
2023-01-30T07:12:08.319Z,99097.59
2023-01-30T07:15:18.075Z,99091.97
2023-01-30T07:18:27.654Z,99080.00
2023-01-30T07:21:38.570Z,99082.59
2023-01-30T07:24:48.017Z,99088.53
2023-01-30T07:27:58.725Z,99072.47
2023-01-30T07:31:08.062Z,99080.00
2023-01-30T07:34:17.343Z,99059.47
2023-01-30T07:37:28.222Z,99058.53
2023-01-30T07:40:37.714Z,99063.19
2023-01-30T07:43:47.039Z,99054.41
2023-01-30T07:46:56.342Z,99051.63
2023-01-30T07:50:06.531Z,99044.34
2023-01-30T07:53:18.547Z,99043.38
2023-01-30T07:56:27.940Z,99039.09
2023-01-30T07:59:37.169Z,99032.44
2023-01-30T08:02:46.446Z,99030.22
2023-01-30T08:05:55.798Z,99014.16
2023-01-30T08:09:06.997Z,99021.88
2023-01-30T08:12:16.332Z,99014.59
2023-01-30T08:15:25.550Z,99016.06
2023-01-30T08:18:35.508Z,99019.38
2023-01-30T08:21:44.854Z,99009.63
2023-01-30T08:24:55.532Z,99002.09
2023-01-30T08:28:05.459Z,98998.59
2023-01-30T08:31:15.656Z,98996.47
2023-01-30T08:34:24.775Z,99005.00
2023-01-30T08:37:34.082Z,99004.78
2023-01-30T08:40:44.945Z,98994.88
2023-01-30T08:43:54.287Z,98996.31
2023-01-30T08:47:03.580Z,98992.03
2023-01-30T08:50:13.166Z,98986.69
2023-01-30T08:53:23.204Z,98970.63
2023-01-30T08:56:33.882Z,98959.41
2023-01-30T08:59:43.448Z,98960.63
2023-01-30T09:02:54.670Z,98956.03
2023-01-30T09:06:04.052Z,98965.22
2023-01-30T09:09:13.381Z,98949.09
2023-01-30T09:12:24.206Z,98940.19
2023-01-30T09:15:33.684Z,98941.84
2023-01-30T09:18:44.222Z,98940.22
2023-01-30T09:21:54.270Z,98925.47
2023-01-30T09:25:03.527Z,98925.03
2023-01-30T09:28:14.399Z,98917.34
2023-01-30T09:31:23.829Z,98920.63
2023-01-30T09:34:33.203Z,98909.47
2023-01-30T09:37:49.079Z,98895.63
2023-01-30T09:41:22.130Z,98903.75
2023-01-30T09:44:49.415Z,98904.63
2023-01-30T09:48:06.725Z,98888.38
2023-01-30T09:51:36.518Z,98882.81
2023-01-30T09:54:47.212Z,98874.81
2023-01-30T09:57:59.517Z,98862.16
2023-01-30T10:01:16.954Z,98863.13
2023-01-30T10:04:31.085Z,98859.41
2023-01-30T10:07:50.631Z,98854.38
2023-01-30T10:11:10.223Z,98847.81
2023-01-30T10:14:32.821Z,98846.06
2023-01-30T10:17:34.319Z,98836.38
2023-01-30T10:20:15.858Z,98830.44
2023-01-30T10:22:56.412Z,98822.41
2023-01-30T10:25:29.542Z,98822.13
2023-01-30T10:28:02.669Z,98813.84
2023-01-30T10:30:31.870Z,98815.22
2023-01-30T10:33:04.460Z,98812.94
2023-01-30T10:35:36.035Z,98808.50
2023-01-30T10:38:09.349Z,98802.66
2023-01-30T10:40:42.947Z,98790.72
2023-01-30T10:43:18.693Z,98788.25
2023-01-30T10:45:51.653Z,98791.53
2023-01-30T10:48:45.569Z,98782.59
2023-01-30T10:51:22.751Z,98784.75
2023-01-30T10:53:55.339Z,98771.88
2023-01-30T10:56:29.383Z,98770.44
2023-01-30T10:59:02.781Z,98769.22
2023-01-30T11:01:34.541Z,98771.03
2023-01-30T11:04:06.149Z,98765.78
2023-01-30T11:06:36.754Z,98760.44
2023-01-30T11:09:05.893Z,98762.22
2023-01-30T11:11:40.766Z,98746.50
2023-01-30T11:14:11.505Z,98748.00
2023-01-30T11:16:45.848Z,98751.44
2023-01-30T11:19:20.595Z,98750.47
2023-01-30T11:21:52.114Z,98743.03
2023-01-30T11:24:22.850Z,98751.69
2023-01-30T11:26:53.251Z,98742.78
2023-01-30T11:29:30.588Z,98740.16
2023-01-30T11:32:03.880Z,98732.09
2023-01-30T11:34:34.559Z,98724.00
2023-01-30T11:37:17.368Z,98718.03
2023-01-30T11:39:52.127Z,98714.13
2023-01-30T11:42:22.320Z,98705.84
2023-01-30T11:44:51.242Z,98721.66
2023-01-30T11:47:25.653Z,98707.25
2023-01-30T11:50:21.582Z,98718.84
2023-01-30T11:52:48.658Z,98707.53
2023-01-30T11:55:19.737Z,98714.72
2023-01-30T11:57:54.006Z,98692.66
2023-01-30T12:00:25.193Z,98703.50
2023-01-30T12:02:55.351Z,98696.41
2023-01-30T12:05:27.269Z,98695.66
2023-01-30T12:08:14.392Z,98695.53
2023-01-30T12:10:44.802Z,98691.22
2023-01-30T12:13:19.611Z,98699.09
2023-01-30T12:15:52.984Z,98686.19
2023-01-30T12:18:27.508Z,98683.00
2023-01-30T12:21:01.602Z,98676.63
2023-01-30T12:23:38.180Z,98686.28
2023-01-30T12:26:12.179Z,98669.88
2023-01-30T12:28:46.876Z,98682.22
2023-01-30T12:31:20.726Z,98683.81
2023-01-30T12:33:50.352Z,98685.25
2023-01-30T12:36:29.250Z,98682.56
2023-01-30T12:39:07.346Z,98672.25
2023-01-30T12:41:54.964Z,98679.34
2023-01-30T12:44:40.472Z,98687.63
2023-01-30T12:47:19.032Z,98677.91
2023-01-30T12:49:58.516Z,98680.72
2023-01-30T12:52:57.598Z,98667.94
2023-01-30T12:55:35.332Z,98673.06
2023-01-30T12:58:11.479Z,98676.47
2023-01-30T13:00:49.936Z,98672.75
2023-01-30T13:03:29.019Z,98675.38
2023-01-30T13:06:05.998Z,98664.88
2023-01-30T13:09:01.422Z,98663.00
2023-01-30T13:11:44.607Z,98671.44
2023-01-30T13:14:20.954Z,98653.97
2023-01-30T13:17:02.354Z,98653.41
2023-01-30T13:19:41.204Z,98664.19
2023-01-30T13:22:16.022Z,98655.50
2023-01-30T13:24:53.065Z,98650.97
2023-01-30T13:27:23.974Z,98655.88
2023-01-30T13:29:54.515Z,98655.47
2023-01-30T13:32:32.472Z,98660.75
2023-01-30T13:35:01.852Z,98660.69
2023-01-30T13:37:31.707Z,98654.34
2023-01-30T13:40:06.553Z,98658.09
2023-01-30T13:42:40.125Z,98665.81
2023-01-30T13:45:16.631Z,98654.94
2023-01-30T13:47:54.918Z,98655.34
2023-01-30T13:50:34.258Z,98665.03
2023-01-30T13:53:08.286Z,98642.53
2023-01-30T13:55:45.495Z,98647.25
2023-01-30T13:58:25.297Z,98648.72
2023-01-30T14:00:55.605Z,98643.16
2023-01-30T14:03:29.090Z,98650.97
2023-01-30T14:06:11.616Z,98655.16
2023-01-30T14:08:42.990Z,98648.47
2023-01-30T14:11:38.676Z,98670.47
2023-01-30T14:14:24.728Z,98653.44
2023-01-30T14:16:55.883Z,98658.50
2023-01-30T14:19:37.840Z,98661.66
2023-01-30T14:22:25.821Z,98660.69
2023-01-30T14:25:46.465Z,98669.31
2023-01-30T14:28:33.405Z,98675.28
2023-01-30T14:31:04.888Z,98675.66
2023-01-30T14:33:36.306Z,98665.84
2023-01-30T14:36:36.836Z,98675.78
2023-01-30T14:39:40.662Z,98670.34
2023-01-30T14:42:23.146Z,98674.38
2023-01-30T14:45:03.820Z,98671.47
2023-01-30T14:47:42.552Z,98678.97
2023-01-30T14:50:20.541Z,98683.66
2023-01-30T14:52:50.441Z,98675.97
2023-01-30T14:55:23.493Z,98683.47
2023-01-30T14:57:56.252Z,98682.47
2023-01-30T15:00:29.551Z,98679.16
2023-01-30T15:03:01.323Z,98675.88
2023-01-30T15:05:33.286Z,98680.38
2023-01-30T15:08:08.544Z,98676.69
2023-01-30T15:10:56.040Z,98672.56
2023-01-30T15:13:50.143Z,98679.81
2023-01-30T15:17:03.039Z,98678.03
2023-01-30T15:19:44.863Z,98683.28
2023-01-30T15:22:19.809Z,98693.50
2023-01-30T15:25:14.149Z,98676.84
2023-01-30T15:27:53.955Z,98686.06
2023-01-30T15:30:28.735Z,98685.75
2023-01-30T15:33:10.216Z,98696.78
2023-01-30T15:35:42.826Z,98690.25
2023-01-30T15:38:25.443Z,98704.00
2023-01-30T15:40:55.051Z,98694.81
2023-01-30T15:43:40.527Z,98703.03
2023-01-30T15:46:14.871Z,98710.09
2023-01-30T15:48:56.445Z,98700.88
2023-01-30T15:51:29.478Z,98696.94
2023-01-30T15:53:59.294Z,98707.50
2023-01-30T15:56:31.213Z,98714.22
2023-01-30T15:59:01.106Z,98716.38
2023-01-30T16:01:30.313Z,98718.66
2023-01-30T16:04:00.544Z,98712.41
2023-01-30T16:06:34.514Z,98720.31
2023-01-30T16:09:06.324Z,98709.75
2023-01-30T16:11:40.798Z,98710.25
2023-01-30T16:14:14.317Z,98717.66
2023-01-30T16:16:46.293Z,98717.00
2023-01-30T16:19:22.373Z,98706.63
2023-01-30T16:21:52.918Z,98708.13
2023-01-30T16:24:24.952Z,98708.78
2023-01-30T16:26:57.713Z,98716.34
2023-01-30T16:29:28.965Z,98703.19
2023-01-30T16:31:58.122Z,98693.44
2023-01-30T16:34:31.882Z,98700.13
2023-01-30T16:37:05.978Z,98701.16
2023-01-30T16:39:36.318Z,98708.22
2023-01-30T16:42:23.300Z,98716.84
2023-01-30T16:44:52.427Z,98719.97
2023-01-30T16:47:25.833Z,98709.13
2023-01-30T16:49:54.877Z,98720.78
2023-01-30T16:52:26.775Z,98726.66
2023-01-30T16:54:56.901Z,98728.34
2023-01-30T16:57:37.119Z,98732.44
2023-01-30T17:00:08.148Z,98733.63
2023-01-30T17:02:39.230Z,98732.81
2023-01-30T17:05:20.214Z,98733.88
2023-01-30T17:07:51.662Z,98729.84
2023-01-30T17:10:55.457Z,98724.53
2023-01-30T17:13:36.145Z,98720.16
2023-01-30T17:16:34.881Z,98733.47
2023-01-30T17:19:04.393Z,98725.72
2023-01-30T17:21:38.738Z,98727.69
2023-01-30T17:24:14.514Z,98735.44
2023-01-30T17:26:43.945Z,98733.97
2023-01-30T17:29:28.848Z,98720.78
2023-01-30T17:32:10.257Z,98728.22
2023-01-30T17:34:41.481Z,98728.84
2023-01-30T17:37:16.256Z,98735.97
2023-01-30T17:39:47.163Z,98744.34
2023-01-30T17:42:21.164Z,98749.50
2023-01-30T17:44:50.447Z,98747.44
2023-01-30T17:47:19.650Z,98740.72
2023-01-30T17:49:48.589Z,98734.78
2023-01-30T17:52:19.039Z,98741.19
2023-01-30T17:54:49.771Z,98750.94
2023-01-30T17:57:20.343Z,98756.53
2023-01-30T17:59:49.389Z,98750.75
2023-01-30T18:02:19.127Z,98757.16
2023-01-30T18:04:47.847Z,98758.97
2023-01-30T18:07:17.147Z,98756.16
2023-01-30T18:09:46.267Z,98757.84
2023-01-30T18:12:16.747Z,98767.34
2023-01-30T18:14:46.015Z,98760.59
2023-01-30T18:17:15.156Z,98752.47
2023-01-30T18:19:43.900Z,98760.53
2023-01-30T18:22:13.041Z,98756.31
2023-01-30T18:24:42.216Z,98758.81
2023-01-30T18:27:11.282Z,98756.50
2023-01-30T18:29:41.833Z,98762.66
2023-01-30T18:32:10.835Z,98770.34
2023-01-30T18:34:39.549Z,98778.75
2023-01-30T18:37:08.572Z,98765.00
2023-01-30T18:39:39.575Z,98770.53
2023-01-30T18:42:09.017Z,98774.56
2023-01-30T18:44:38.138Z,98775.59
2023-01-30T18:47:08.801Z,98770.16
2023-01-30T18:49:37.665Z,98772.47
2023-01-30T18:52:06.804Z,98761.47
2023-01-30T18:54:37.551Z,98749.75
2023-01-30T18:57:07.020Z,98752.91
2023-01-30T18:59:36.019Z,98759.66
2023-01-30T19:02:05.279Z,98766.06
2023-01-30T19:04:35.780Z,98759.81
2023-01-30T19:07:05.143Z,98757.34
2023-01-30T19:09:34.929Z,98748.28
2023-01-30T19:12:21.666Z,98756.31
2023-01-30T19:14:50.897Z,98758.97
2023-01-30T19:17:20.052Z,98773.09
2023-01-30T19:19:50.436Z,98775.56
2023-01-30T19:22:19.597Z,98768.78
2023-01-30T19:24:48.770Z,98773.59
2023-01-30T19:27:18.004Z,98770.19
2023-01-30T19:29:47.192Z,98770.19
2023-01-30T19:32:16.279Z,98760.28
2023-01-30T19:34:45.329Z,98769.31
2023-01-30T19:37:15.960Z,98766.06
2023-01-30T19:39:45.095Z,98768.69
2023-01-30T19:42:16.236Z,98780.22
2023-01-30T19:44:45.353Z,98779.72
2023-01-30T19:47:14.371Z,98780.34
2023-01-30T19:49:43.875Z,98776.63
2023-01-30T19:52:12.934Z,98783.84
2023-01-30T19:54:44.183Z,98785.16
2023-01-30T19:57:13.464Z,98784.00
2023-01-30T19:59:43.871Z,98777.56
2023-01-30T20:02:13.300Z,98781.66
2023-01-30T20:04:42.073Z,98788.44
2023-01-30T20:07:11.172Z,98795.84
2023-01-30T20:09:40.583Z,98789.09
2023-01-30T20:12:11.399Z,98788.78
2023-01-30T20:14:40.477Z,98778.19
2023-01-30T20:17:09.505Z,98784.19
2023-01-30T20:19:38.349Z,98784.16
2023-01-30T20:22:08.514Z,98794.38
2023-01-30T20:24:37.706Z,98796.69
2023-01-30T20:27:06.893Z,98779.56
2023-01-30T20:29:37.433Z,98796.16
2023-01-30T20:32:07.013Z,98804.41
2023-01-30T20:34:36.718Z,98790.75
2023-01-30T20:37:05.795Z,98808.53
2023-01-30T20:39:34.843Z,98826.28
2023-01-30T20:42:03.960Z,98832.78
2023-01-30T20:44:33.758Z,98824.00
2023-01-30T20:47:04.659Z,98828.63
2023-01-30T20:49:33.592Z,98826.59
2023-01-30T20:52:03.054Z,98845.09
2023-01-30T20:54:32.282Z,98849.31
2023-01-30T20:57:02.725Z,98852.41
2023-01-30T20:59:31.928Z,98852.03
2023-01-30T21:02:00.896Z,98854.28
2023-01-30T21:04:31.088Z,98853.50
2023-01-30T21:07:00.222Z,98855.94
2023-01-30T21:09:29.331Z,98867.47
2023-01-30T21:11:58.533Z,98868.47
2023-01-30T21:14:27.544Z,98870.63
2023-01-30T21:16:56.273Z,98890.13
2023-01-30T21:19:25.326Z,98888.44
2023-01-30T21:21:56.342Z,98889.34
2023-01-30T21:24:27.732Z,98884.53
2023-01-30T21:26:57.324Z,98892.88
2023-01-30T21:29:27.792Z,98894.03
2023-01-30T21:31:57.326Z,98877.16
2023-01-30T21:34:26.885Z,98897.38
2023-01-30T21:37:20.081Z,98887.06
2023-01-30T21:40:06.299Z,98896.44
2023-01-30T21:42:52.315Z,98880.56
2023-01-30T21:45:22.335Z,98887.44
2023-01-30T21:47:51.782Z,98883.78
2023-01-30T21:50:20.864Z,98892.44
2023-01-30T21:52:51.068Z,98878.72
2023-01-30T21:55:20.487Z,98900.88
2023-01-30T21:57:49.706Z,98897.19
2023-01-30T22:00:19.328Z,98895.22
2023-01-30T22:02:51.268Z,98902.94
2023-01-30T22:05:20.544Z,98899.34
2023-01-30T22:07:50.783Z,98905.50
2023-01-30T22:10:20.041Z,98867.75
2023-01-30T22:12:49.195Z,98901.75
2023-01-30T22:15:20.955Z,98905.88
2023-01-30T22:17:50.289Z,98909.81
2023-01-30T22:20:19.480Z,98909.50
2023-01-30T22:22:49.109Z,98912.41
2023-01-30T22:25:19.942Z,98915.88
2023-01-30T22:27:49.164Z,98906.84
2023-01-30T22:30:19.244Z,98909.81
2023-01-30T22:32:48.287Z,98922.97
2023-01-30T22:35:17.629Z,98926.16
2023-01-30T22:37:46.411Z,98931.06
2023-01-30T22:40:15.776Z,98945.53
2023-01-30T22:42:50.082Z,98942.06
2023-01-30T22:45:19.604Z,98943.28
2023-01-30T22:47:48.740Z,98937.78
2023-01-30T22:50:18.459Z,98933.34
2023-01-30T22:52:46.993Z,98939.03
2023-01-30T22:55:16.125Z,98943.66
2023-01-30T22:57:45.133Z,98950.28
2023-01-30T23:00:18.367Z,98945.69
2023-01-30T23:02:48.821Z,98955.28
2023-01-30T23:05:18.273Z,98958.81
2023-01-30T23:07:47.081Z,98960.72
2023-01-30T23:10:16.103Z,98954.63
2023-01-30T23:13:02.231Z,98954.31
2023-01-30T23:15:35.693Z,98956.00
2023-01-30T23:18:25.375Z,98954.69
2023-01-30T23:20:54.426Z,98952.59
2023-01-30T23:23:23.387Z,98947.66
2023-01-30T23:25:52.034Z,98949.78
2023-01-30T23:28:20.974Z,98955.69
2023-01-30T23:30:49.936Z,98958.31
2023-01-30T23:33:20.300Z,98945.00
2023-01-30T23:35:49.264Z,98954.41
2023-01-30T23:38:19.302Z,98961.75
2023-01-30T23:40:48.866Z,98959.78
2023-01-30T23:43:17.963Z,98961.22
2023-01-30T23:45:46.977Z,98949.16
2023-01-30T23:48:16.020Z,98961.34
2023-01-30T23:50:46.357Z,98955.50
2023-01-30T23:53:15.367Z,98943.53
2023-01-30T23:55:52.328Z,98943.44
2023-01-30T23:58:21.349Z,98948.28
